sensor_id;sensor_type;location;lat;lon;timestamp;temperature;humidity
16867;DHT22;8550;52.596;13.320;2023-06-01T00:01:56;15.10;99.90
16867;DHT22;8550;52.596;13.320;2023-06-01T00:06:58;15.00;99.90
16867;DHT22;8550;52.596;13.320;2023-06-01T00:12:04;14.90;99.90
16867;DHT22;8550;52.596;13.320;2023-06-01T00:17:06;14.80;99.90
16867;DHT22;8550;52.596;13.320;2023-06-01T00:22:08;14.70;99.90
16867;DHT22;8550;52.596;13.320;2023-06-01T00:27:11;14.60;99.90
16867;DHT22;8550;52.596;13.320;2023-06-01T00:32:13;14.60;99.90
16867;DHT22;8550;52.596;13.320;2023-06-01T00:37:15;14.50;99.90
16867;DHT22;8550;52.596;13.320;2023-06-01T00:42:18;14.40;99.90
16867;DHT22;8550;52.596;13.320;2023-06-01T00:47:20;14.30;99.90
16867;DHT22;8550;52.596;13.320;2023-06-01T00:52:23;14.10;99.90
16867;DHT22;8550;52.596;13.320;2023-06-01T00:57:27;14.00;99.90
16867;DHT22;8550;52.596;13.320;2023-06-01T01:02:30;13.90;99.90
16867;DHT22;8550;52.596;13.320;2023-06-01T01:07:38;13.90;99.90
16867;DHT22;8550;52.596;13.320;2023-06-01T01:12:47;13.70;99.90
16867;DHT22;8550;52.596;13.320;2023-06-01T01:17:58;13.60;99.90
16867;DHT22;8550;52.596;13.320;2023-06-01T01:23:21;13.50;99.90
16867;DHT22;8550;52.596;13.320;2023-06-01T01:28:37;13.50;99.90
16867;DHT22;8550;52.596;13.320;2023-06-01T01:33:41;13.40;99.90
16867;DHT22;8550;52.596;13.320;2023-06-01T01:38:45;13.40;99.90
16867;DHT22;8550;52.596;13.320;2023-06-01T01:43:49;13.30;99.90
16867;DHT22;8550;52.596;13.320;2023-06-01T01:49:01;13.30;99.90
16867;DHT22;8550;52.596;13.320;2023-06-01T01:54:05;13.20;99.90
16867;DHT22;8550;52.596;13.320;2023-06-01T01:59:09;13.10;99.90
16867;DHT22;8550;52.596;13.320;2023-06-01T02:04:11;13.00;99.90
16867;DHT22;8550;52.596;13.320;2023-06-01T02:09:13;13.00;99.90
16867;DHT22;8550;52.596;13.320;2023-06-01T02:14:16;12.90;99.90
16867;DHT22;8550;52.596;13.320;2023-06-01T02:19:18;12.80;99.90
16867;DHT22;8550;52.596;13.320;2023-06-01T02:24:21;12.60;99.90
16867;DHT22;8550;52.596;13.320;2023-06-01T02:29:24;12.60;99.90
16867;DHT22;8550;52.596;13.320;2023-06-01T02:34:26;12.60;99.90
16867;DHT22;8550;52.596;13.320;2023-06-01T02:39:28;12.50;99.90
16867;DHT22;8550;52.596;13.320;2023-06-01T02:44:31;12.40;99.90
16867;DHT22;8550;52.596;13.320;2023-06-01T02:49:33;12.30;99.90
16867;DHT22;8550;52.596;13.320;2023-06-01T02:54:35;12.40;99.90
16867;DHT22;8550;52.596;13.320;2023-06-01T02:59:38;12.40;99.90
16867;DHT22;8550;52.596;13.320;2023-06-01T03:04:40;12.30;99.90
16867;DHT22;8550;52.596;13.320;2023-06-01T03:09:43;12.20;99.90
16867;DHT22;8550;52.596;13.320;2023-06-01T03:14:47;12.20;99.90
16867;DHT22;8550;52.596;13.320;2023-06-01T03:19:49;12.10;99.90
16867;DHT22;8550;52.596;13.320;2023-06-01T03:24:50;12.20;99.90
16867;DHT22;8550;52.596;13.320;2023-06-01T03:29:56;12.10;99.90
16867;DHT22;8550;52.596;13.320;2023-06-01T03:34:58;12.00;99.90
16867;DHT22;8550;52.596;13.320;2023-06-01T03:40:00;12.10;99.90
16867;DHT22;8550;52.596;13.320;2023-06-01T03:45:13;12.10;99.90
16867;DHT22;8550;52.596;13.320;2023-06-01T03:50:16;12.10;99.90
16867;DHT22;8550;52.596;13.320;2023-06-01T03:55:19;12.10;99.90
16867;DHT22;8550;52.596;13.320;2023-06-01T04:00:23;12.20;99.90
16867;DHT22;8550;52.596;13.320;2023-06-01T04:05:26;12.20;99.90
16867;DHT22;8550;52.596;13.320;2023-06-01T04:10:29;12.30;99.90
16867;DHT22;8550;52.596;13.320;2023-06-01T04:15:33;12.30;99.90
16867;DHT22;8550;52.596;13.320;2023-06-01T04:20:35;12.30;99.90
16867;DHT22;8550;52.596;13.320;2023-06-01T04:25:37;12.50;99.90
16867;DHT22;8550;52.596;13.320;2023-06-01T04:30:41;12.60;99.90
16867;DHT22;8550;52.596;13.320;2023-06-01T04:35:44;12.60;99.90
16867;DHT22;8550;52.596;13.320;2023-06-01T04:40:46;12.40;99.90
16867;DHT22;8550;52.596;13.320;2023-06-01T04:45:50;12.50;99.90
16867;DHT22;8550;52.596;13.320;2023-06-01T04:50:51;12.50;99.90
16867;DHT22;8550;52.596;13.320;2023-06-01T04:55:53;12.60;99.90
16867;DHT22;8550;52.596;13.320;2023-06-01T05:00:58;12.30;99.90
16867;DHT22;8550;52.596;13.320;2023-06-01T05:06:00;12.20;99.90
16867;DHT22;8550;52.596;13.320;2023-06-01T05:11:03;12.30;99.90
16867;DHT22;8550;52.596;13.320;2023-06-01T05:16:07;12.30;99.90
16867;DHT22;8550;52.596;13.320;2023-06-01T05:21:10;12.40;99.90
16867;DHT22;8550;52.596;13.320;2023-06-01T05:26:12;12.50;99.90
16867;DHT22;8550;52.596;13.320;2023-06-01T05:31:15;12.40;99.90
16867;DHT22;8550;52.596;13.320;2023-06-01T05:36:17;12.50;99.90
16867;DHT22;8550;52.596;13.320;2023-06-01T05:41:19;12.70;99.90
16867;DHT22;8550;52.596;13.320;2023-06-01T05:46:22;12.60;99.90
16867;DHT22;8550;52.596;13.320;2023-06-01T05:51:25;12.60;99.90
16867;DHT22;8550;52.596;13.320;2023-06-01T05:56:27;12.80;99.90
16867;DHT22;8550;52.596;13.320;2023-06-01T06:01:30;13.00;99.90
16867;DHT22;8550;52.596;13.320;2023-06-01T06:06:32;12.90;99.90
16867;DHT22;8550;52.596;13.320;2023-06-01T06:11:34;13.00;99.90
16867;DHT22;8550;52.596;13.320;2023-06-01T06:16:38;13.20;99.90
16867;DHT22;8550;52.596;13.320;2023-06-01T06:21:40;13.20;99.90
16867;DHT22;8550;52.596;13.320;2023-06-01T06:26:42;13.30;99.90
16867;DHT22;8550;52.596;13.320;2023-06-01T06:31:46;13.40;99.90
16867;DHT22;8550;52.596;13.320;2023-06-01T06:36:49;13.20;99.90
16867;DHT22;8550;52.596;13.320;2023-06-01T06:41:53;13.20;99.90
16867;DHT22;8550;52.596;13.320;2023-06-01T06:46:58;13.30;99.90
16867;DHT22;8550;52.596;13.320;2023-06-01T06:52:00;13.30;99.90
16867;DHT22;8550;52.596;13.320;2023-06-01T06:57:03;13.30;99.90
16867;DHT22;8550;52.596;13.320;2023-06-01T07:02:06;13.90;99.90
16867;DHT22;8550;52.596;13.320;2023-06-01T07:07:09;14.10;99.90
16867;DHT22;8550;52.596;13.320;2023-06-01T07:12:10;13.90;99.90
16867;DHT22;8550;52.596;13.320;2023-06-01T07:17:14;14.10;99.90
16867;DHT22;8550;52.596;13.320;2023-06-01T07:22:16;14.00;99.90
16867;DHT22;8550;52.596;13.320;2023-06-01T07:27:18;14.00;99.90
16867;DHT22;8550;52.596;13.320;2023-06-01T07:32:23;14.10;99.90
16867;DHT22;8550;52.596;13.320;2023-06-01T07:37:25;14.20;99.90
16867;DHT22;8550;52.596;13.320;2023-06-01T07:42:27;14.30;99.90
16867;DHT22;8550;52.596;13.320;2023-06-01T07:47:30;14.60;99.90
16867;DHT22;8550;52.596;13.320;2023-06-01T07:52:32;14.80;99.90
16867;DHT22;8550;52.596;13.320;2023-06-01T07:57:34;14.10;99.90
16867;DHT22;8550;52.596;13.320;2023-06-01T08:02:38;14.30;99.90
16867;DHT22;8550;52.596;13.320;2023-06-01T08:07:40;14.60;99.90
16867;DHT22;8550;52.596;13.320;2023-06-01T08:12:43;14.60;99.90
16867;DHT22;8550;52.596;13.320;2023-06-01T08:17:46;15.00;99.90
16867;DHT22;8550;52.596;13.320;2023-06-01T08:22:48;15.20;99.90
16867;DHT22;8550;52.596;13.320;2023-06-01T08:27:51;15.20;99.90
16867;DHT22;8550;52.596;13.320;2023-06-01T08:32:54;15.20;99.90
16867;DHT22;8550;52.596;13.320;2023-06-01T08:37:56;15.30;99.90
16867;DHT22;8550;52.596;13.320;2023-06-01T08:43:04;15.50;99.90
16867;DHT22;8550;52.596;13.320;2023-06-01T08:48:16;15.80;99.90
16867;DHT22;8550;52.596;13.320;2023-06-01T08:53:19;15.70;99.90
16867;DHT22;8550;52.596;13.320;2023-06-01T08:58:22;15.70;99.90
16867;DHT22;8550;52.596;13.320;2023-06-01T09:03:25;16.00;99.90
16867;DHT22;8550;52.596;13.320;2023-06-01T09:08:27;16.10;99.90
16867;DHT22;8550;52.596;13.320;2023-06-01T09:13:33;16.40;99.90
16867;DHT22;8550;52.596;13.320;2023-06-01T09:18:37;16.30;99.90
16867;DHT22;8550;52.596;13.320;2023-06-01T09:23:52;16.60;99.90
16867;DHT22;8550;52.596;13.320;2023-06-01T09:28:55;17.00;99.90
16867;DHT22;8550;52.596;13.320;2023-06-01T09:34:00;17.40;99.90
16867;DHT22;8550;52.596;13.320;2023-06-01T09:39:04;17.00;99.90
16867;DHT22;8550;52.596;13.320;2023-06-01T09:44:06;17.20;99.90
16867;DHT22;8550;52.596;13.320;2023-06-01T09:49:09;17.60;99.90
16867;DHT22;8550;52.596;13.320;2023-06-01T09:54:21;17.70;99.90
16867;DHT22;8550;52.596;13.320;2023-06-01T09:59:24;18.00;99.90
16867;DHT22;8550;52.596;13.320;2023-06-01T10:04:30;18.10;99.90
16867;DHT22;8550;52.596;13.320;2023-06-01T10:09:34;18.10;99.60
16867;DHT22;8550;52.596;13.320;2023-06-01T10:14:39;18.10;99.20
16867;DHT22;8550;52.596;13.320;2023-06-01T10:19:42;18.00;99.40
16867;DHT22;8550;52.596;13.320;2023-06-01T10:24:45;18.20;99.00
16867;DHT22;8550;52.596;13.320;2023-06-01T10:29:47;18.40;98.20
16867;DHT22;8550;52.596;13.320;2023-06-01T10:39:37;18.60;97.70
16867;DHT22;8550;52.596;13.320;2023-06-01T10:44:46;18.80;97.00
16867;DHT22;8550;52.596;13.320;2023-06-01T10:50:07;18.90;96.40
16867;DHT22;8550;52.596;13.320;2023-06-01T10:55:28;19.20;97.30
16867;DHT22;8550;52.596;13.320;2023-06-01T11:00:38;19.50;96.10
16867;DHT22;8550;52.596;13.320;2023-06-01T11:05:44;19.70;95.20
16867;DHT22;8550;52.596;13.320;2023-06-01T11:10:56;20.50;94.70
16867;DHT22;8550;52.596;13.320;2023-06-01T11:16:28;22.10;92.50
16867;DHT22;8550;52.596;13.320;2023-06-01T11:21:33;23.20;88.70
16867;DHT22;8550;52.596;13.320;2023-06-01T11:26:39;24.30;81.70
16867;DHT22;8550;52.596;13.320;2023-06-01T11:31:43;24.10;78.10
16867;DHT22;8550;52.596;13.320;2023-06-01T11:36:47;23.90;79.00
16867;DHT22;8550;52.596;13.320;2023-06-01T11:41:53;24.90;75.10
16867;DHT22;8550;52.596;13.320;2023-06-01T11:47:06;26.00;70.70
16867;DHT22;8550;52.596;13.320;2023-06-01T11:52:09;25.20;68.70
16867;DHT22;8550;52.596;13.320;2023-06-01T11:57:12;24.70;72.10
16867;DHT22;8550;52.596;13.320;2023-06-01T12:02:19;25.70;68.40
16867;DHT22;8550;52.596;13.320;2023-06-01T12:07:22;26.60;64.50
16867;DHT22;8550;52.596;13.320;2023-06-01T12:12:26;26.50;62.30
16867;DHT22;8550;52.596;13.320;2023-06-01T12:17:47;25.60;65.40
16867;DHT22;8550;52.596;13.320;2023-06-01T12:22:49;26.20;64.50
16867;DHT22;8550;52.596;13.320;2023-06-01T12:28:03;26.10;63.40
16867;DHT22;8550;52.596;13.320;2023-06-01T12:33:05;27.80;59.40
16867;DHT22;8550;52.596;13.320;2023-06-01T12:38:08;28.10;59.00
16867;DHT22;8550;52.596;13.320;2023-06-01T12:43:18;27.80;59.50
16867;DHT22;8550;52.596;13.320;2023-06-01T12:48:30;27.00;57.60
16867;DHT22;8550;52.596;13.320;2023-06-01T12:53:32;26.60;59.30
16867;DHT22;8550;52.596;13.320;2023-06-01T12:58:36;28.10;58.00
16867;DHT22;8550;52.596;13.320;2023-06-01T13:03:38;28.10;56.90
16867;DHT22;8550;52.596;13.320;2023-06-01T13:08:40;27.70;54.90
16867;DHT22;8550;52.596;13.320;2023-06-01T13:13:43;27.10;56.70
16867;DHT22;8550;52.596;13.320;2023-06-01T13:18:45;27.50;56.50
16867;DHT22;8550;52.596;13.320;2023-06-01T13:23:48;29.10;54.10
16867;DHT22;8550;52.596;13.320;2023-06-01T13:28:51;28.40;55.30
16867;DHT22;8550;52.596;13.320;2023-06-01T13:33:53;28.50;54.50
16867;DHT22;8550;52.596;13.320;2023-06-01T13:38:56;28.80;54.20
16867;DHT22;8550;52.596;13.320;2023-06-01T13:44:00;28.50;54.70
16867;DHT22;8550;52.596;13.320;2023-06-01T13:49:02;30.40;52.70
16867;DHT22;8550;52.596;13.320;2023-06-01T13:54:05;29.90;52.80
16867;DHT22;8550;52.596;13.320;2023-06-01T13:59:08;29.90;52.10
16867;DHT22;8550;52.596;13.320;2023-06-01T14:04:10;29.90;49.80
16867;DHT22;8550;52.596;13.320;2023-06-01T14:09:12;30.30;48.70
16867;DHT22;8550;52.596;13.320;2023-06-01T14:14:15;29.40;50.80
16867;DHT22;8550;52.596;13.320;2023-06-01T14:19:17;28.50;50.70
16867;DHT22;8550;52.596;13.320;2023-06-01T14:24:19;27.80;51.80
16867;DHT22;8550;52.596;13.320;2023-06-01T14:29:23;29.30;50.10
16867;DHT22;8550;52.596;13.320;2023-06-01T14:34:25;30.00;49.80
16867;DHT22;8550;52.596;13.320;2023-06-01T14:39:27;29.70;48.60
16867;DHT22;8550;52.596;13.320;2023-06-01T14:44:30;29.70;49.30
16867;DHT22;8550;52.596;13.320;2023-06-01T14:49:32;27.90;51.50
16867;DHT22;8550;52.596;13.320;2023-06-01T14:54:34;27.40;51.50
16867;DHT22;8550;52.596;13.320;2023-06-01T14:59:37;25.90;54.60
16867;DHT22;8550;52.596;13.320;2023-06-01T15:04:39;25.00;57.10
16867;DHT22;8550;52.596;13.320;2023-06-01T15:09:42;24.20;58.30
16867;DHT22;8550;52.596;13.320;2023-06-01T15:14:45;24.00;59.10
16867;DHT22;8550;52.596;13.320;2023-06-01T15:19:48;22.90;59.40
16867;DHT22;8550;52.596;13.320;2023-06-01T15:24:50;22.60;60.10
16867;DHT22;8550;52.596;13.320;2023-06-01T15:29:53;22.90;59.90
16867;DHT22;8550;52.596;13.320;2023-06-01T15:34:55;22.80;59.70
16867;DHT22;8550;52.596;13.320;2023-06-01T15:39:57;22.20;62.90
16867;DHT22;8550;52.596;13.320;2023-06-01T15:45:01;22.10;63.90
16867;DHT22;8550;52.596;13.320;2023-06-01T15:50:03;22.10;64.40
16867;DHT22;8550;52.596;13.320;2023-06-01T15:55:05;21.90;63.70
16867;DHT22;8550;52.596;13.320;2023-06-01T16:00:10;22.10;63.10
16867;DHT22;8550;52.596;13.320;2023-06-01T16:05:13;22.20;62.50
16867;DHT22;8550;52.596;13.320;2023-06-01T16:10:15;22.20;63.80
16867;DHT22;8550;52.596;13.320;2023-06-01T16:15:19;22.20;61.40
16867;DHT22;8550;52.596;13.320;2023-06-01T16:20:21;22.00;64.60
16867;DHT22;8550;52.596;13.320;2023-06-01T16:25:23;22.10;63.00
16867;DHT22;8550;52.596;13.320;2023-06-01T16:30:28;22.40;63.90
16867;DHT22;8550;52.596;13.320;2023-06-01T16:35:31;22.40;64.00
16867;DHT22;8550;52.596;13.320;2023-06-01T16:40:33;22.50;63.50
16867;DHT22;8550;52.596;13.320;2023-06-01T16:45:36;22.40;64.20
16867;DHT22;8550;52.596;13.320;2023-06-01T16:50:38;22.70;64.60
16867;DHT22;8550;52.596;13.320;2023-06-01T16:55:44;23.20;62.40
16867;DHT22;8550;52.596;13.320;2023-06-01T17:00:47;23.80;61.10
16867;DHT22;8550;52.596;13.320;2023-06-01T17:05:49;24.20;58.60
16867;DHT22;8550;52.596;13.320;2023-06-01T17:10:51;24.70;59.00
16867;DHT22;8550;52.596;13.320;2023-06-01T17:15:54;25.90;56.20
16867;DHT22;8550;52.596;13.320;2023-06-01T17:20:56;26.30;54.80
16867;DHT22;8550;52.596;13.320;2023-06-01T17:25:57;26.40;53.90
16867;DHT22;8550;52.596;13.320;2023-06-01T17:31:01;25.90;55.40
16867;DHT22;8550;52.596;13.320;2023-06-01T17:36:03;26.10;56.00
16867;DHT22;8550;52.596;13.320;2023-06-01T17:41:05;25.20;56.40
16867;DHT22;8550;52.596;13.320;2023-06-01T17:46:09;24.20;59.00
16867;DHT22;8550;52.596;13.320;2023-06-01T17:51:12;22.90;63.00
16867;DHT22;8550;52.596;13.320;2023-06-01T17:56:14;22.10;65.60
16867;DHT22;8550;52.596;13.320;2023-06-01T18:01:17;21.40;68.20
16867;DHT22;8550;52.596;13.320;2023-06-01T18:06:19;20.80;70.10
16867;DHT22;8550;52.596;13.320;2023-06-01T18:11:21;20.60;71.20
16867;DHT22;8550;52.596;13.320;2023-06-01T18:16:25;20.50;72.30
16867;DHT22;8550;52.596;13.320;2023-06-01T18:21:27;20.40;73.20
16867;DHT22;8550;52.596;13.320;2023-06-01T18:26:28;20.40;73.80
16867;DHT22;8550;52.596;13.320;2023-06-01T18:31:32;20.10;75.10
16867;DHT22;8550;52.596;13.320;2023-06-01T18:36:34;19.80;76.70
16867;DHT22;8550;52.596;13.320;2023-06-01T18:41:35;19.50;78.30
16867;DHT22;8550;52.596;13.320;2023-06-01T18:46:39;19.40;79.20
16867;DHT22;8550;52.596;13.320;2023-06-01T18:51:41;19.20;81.70
16867;DHT22;8550;52.596;13.320;2023-06-01T18:56:43;19.00;82.50
16867;DHT22;8550;52.596;13.320;2023-06-01T19:01:48;18.90;83.50
16867;DHT22;8550;52.596;13.320;2023-06-01T19:06:50;18.70;84.90
16867;DHT22;8550;52.596;13.320;2023-06-01T19:11:54;18.50;86.80
16867;DHT22;8550;52.596;13.320;2023-06-01T19:16:59;18.30;87.50
16867;DHT22;8550;52.596;13.320;2023-06-01T19:22:02;18.20;89.50
16867;DHT22;8550;52.596;13.320;2023-06-01T19:27:04;18.00;90.20
16867;DHT22;8550;52.596;13.320;2023-06-01T19:32:08;17.90;91.10
16867;DHT22;8550;52.596;13.320;2023-06-01T19:37:12;17.80;91.50
16867;DHT22;8550;52.596;13.320;2023-06-01T19:42:39;17.70;92.10
16867;DHT22;8550;52.596;13.320;2023-06-01T19:47:46;17.50;92.70
16867;DHT22;8550;52.596;13.320;2023-06-01T19:52:48;17.50;93.30
16867;DHT22;8550;52.596;13.320;2023-06-01T19:57:52;17.20;94.10
16867;DHT22;8550;52.596;13.320;2023-06-01T20:09:06;17.10;95.60
16867;DHT22;8550;52.596;13.320;2023-06-01T20:14:32;16.80;96.60
16867;DHT22;8550;52.596;13.320;2023-06-01T20:19:43;16.70;97.70
16867;DHT22;8550;52.596;13.320;2023-06-01T20:24:47;16.50;98.80
16867;DHT22;8550;52.596;13.320;2023-06-01T20:29:51;16.30;99.70
16867;DHT22;8550;52.596;13.320;2023-06-01T20:34:53;16.20;99.90
16867;DHT22;8550;52.596;13.320;2023-06-01T20:39:57;16.00;99.90
16867;DHT22;8550;52.596;13.320;2023-06-01T20:44:59;15.90;99.90
16867;DHT22;8550;52.596;13.320;2023-06-01T20:50:02;15.80;99.90
16867;DHT22;8550;52.596;13.320;2023-06-01T20:55:06;15.70;99.90
16867;DHT22;8550;52.596;13.320;2023-06-01T21:00:12;15.50;99.90
16867;DHT22;8550;52.596;13.320;2023-06-01T21:05:14;15.40;99.90
16867;DHT22;8550;52.596;13.320;2023-06-01T21:10:18;15.30;99.90
16867;DHT22;8550;52.596;13.320;2023-06-01T21:15:20;15.10;99.90
16867;DHT22;8550;52.596;13.320;2023-06-01T21:20:22;15.10;99.90
16867;DHT22;8550;52.596;13.320;2023-06-01T21:25:28;15.10;99.90
16867;DHT22;8550;52.596;13.320;2023-06-01T21:30:31;15.00;99.90
16867;DHT22;8550;52.596;13.320;2023-06-01T21:35:34;14.80;99.90
16867;DHT22;8550;52.596;13.320;2023-06-01T21:40:42;14.70;99.90
16867;DHT22;8550;52.596;13.320;2023-06-01T21:45:45;14.50;99.90
16867;DHT22;8550;52.596;13.320;2023-06-01T21:50:51;14.40;99.90
16867;DHT22;8550;52.596;13.320;2023-06-01T21:55:54;14.20;99.90
16867;DHT22;8550;52.596;13.320;2023-06-01T22:00:56;14.00;99.90
16867;DHT22;8550;52.596;13.320;2023-06-01T22:05:59;13.90;99.90
16867;DHT22;8550;52.596;13.320;2023-06-01T22:11:02;13.80;99.90
16867;DHT22;8550;52.596;13.320;2023-06-01T22:16:05;13.90;99.90
16867;DHT22;8550;52.596;13.320;2023-06-01T22:21:07;13.80;99.90
16867;DHT22;8550;52.596;13.320;2023-06-01T22:26:10;13.70;99.90
16867;DHT22;8550;52.596;13.320;2023-06-01T22:31:13;13.50;99.90
16867;DHT22;8550;52.596;13.320;2023-06-01T22:36:15;13.40;99.90
16867;DHT22;8550;52.596;13.320;2023-06-01T22:41:18;13.30;99.90
16867;DHT22;8550;52.596;13.320;2023-06-01T22:46:21;13.20;99.90
16867;DHT22;8550;52.596;13.320;2023-06-01T22:51:23;13.10;99.90
16867;DHT22;8550;52.596;13.320;2023-06-01T22:56:28;13.00;99.90
16867;DHT22;8550;52.596;13.320;2023-06-01T23:01:30;12.80;99.90
16867;DHT22;8550;52.596;13.320;2023-06-01T23:06:32;12.90;99.90
16867;DHT22;8550;52.596;13.320;2023-06-01T23:11:36;12.80;99.90
16867;DHT22;8550;52.596;13.320;2023-06-01T23:16:39;12.70;99.90
16867;DHT22;8550;52.596;13.320;2023-06-01T23:21:45;12.60;99.90
16867;DHT22;8550;52.596;13.320;2023-06-01T23:26:50;12.60;99.90
16867;DHT22;8550;52.596;13.320;2023-06-01T23:31:52;12.60;99.90
16867;DHT22;8550;52.596;13.320;2023-06-01T23:36:54;12.60;99.90
16867;DHT22;8550;52.596;13.320;2023-06-01T23:42:03;12.60;99.90
16867;DHT22;8550;52.596;13.320;2023-06-01T23:47:06;12.50;99.90
16867;DHT22;8550;52.596;13.320;2023-06-01T23:52:09;12.30;99.90
16867;DHT22;8550;52.596;13.320;2023-06-01T23:57:12;12.30;99.90
